Historyczne dane pomiarowe

Dodano dane terminowe – wersja testowa.

Dane z okresu 1951-2019

Wersja bazy: 1.34 [2019-03-16, lista zmian], aktualizacja planowana na 2019-04-15

Dane meteo z obszaru Polski uzyskane na podstawie danych udostępnionych przez Instytut Meteorologii i Gospodarki Wodnej – Państwowy Instytut Badawczy.

 

Wybierz Datę:    

       

TemperaturaWilgotnośćWiatrCiśnienieOpadyŚniegCzas trwania zjawisk
 Stacja t tx tn tng RH VA  wxwx mslp ppp RRR   cm mm wxwxwxwxwxwxwx
2019-03-31 9.7 19.1 -0.1 -3.7 62.1 6.7- 1.4--1020.1 984.4 0.0 0.0 0.0x- 11.8-------
2019-03-30 7.9 18.7 -1.8 -4.5 69.9 6.8- 1.3--1025.9 989.7 0.0 0.0 0.0x- 11.3-------
2019-03-29 5.4 13.5 -2.3 -5.2 74.6 6.4- 1.6--1032.6 995.9 0.0 0.0 0.0x- 10.5-------
2019-03-28 3.7 9.1 -1.6 -4.1 79.9 6.3- 1.1--1031.6 994.8 0.0 0.0 0.0x- 0.1-------
2019-03-27 3.7 9.3 -1.3 -4.4 54.9 4.2- 3.4--1028.5 991.7 0.0 0.0 0.0x- 10.8-------
2019-03-26 4.2 8.1 2.1 1.5 72.8 5.9- 4.3--1020.5 984.1 1.6 0.6 1.0x- 2.7-------
2019-03-25 4.5 10.3 2.4 1.4 84.9 7.2- 2.6--1014.2 978.1 5.2 4.6 0.6x- 2.1-------
2019-03-24 7.3 13.0 2.6 0.1 76.0 7.7- 1.5--1022.7 986.6 0.3 0.0 0.3x- 3.4-------
2019-03-23 9.5 18.0 3.0 -0.5 66.9 7.3- 1.5--1028.0 992.0 0.0 0.0 0.0x- 9.4-------
2019-03-22 9.1 14.1 5.5 2.2 74.6 8.6- 1.4--1032.7 996.5 0.0 0.0 0.0x- 1.7-------
2019-03-21 4.7 12.3 -3.8 -5.7 69.5 5.9- 1.5--1035.2 998.3 0.0 0.0 0.0x- 4.5-------
2019-03-20 2.4 9.3 -2.4 -4.9 68.4 4.7- 0.9--1034.0 996.8 0.0 0.0 0.0x- 6.8-------
2019-03-19 2.9 7.4 -2.0 -4.6 70.3 5.1- 1.4--1025.5 988.7 0.5 0.5 0.0x- 3.1-------
2019-03-18 6.9 15.4 5.3 4.1 70.9 7.0- 1.6--1014.1 978.2 1.4 1.4 0.0x- 0.0-------
2019-03-17 12.8 21.6 5.1 1.0 53.1 7.2- 2.4--1007.1 972.2 0.1 0.0 0.1x- 11.4-------
2019-03-16 6.8 9.3 4.4 2.4 59.5 5.8- 5.4--1006.2 970.6 0.0 0.0 0.0x- 1.6-------
2019-03-15 6.4 9.2 2.6 -1.1 64.3 6.2- 3.8--1003.0 967.5 4.3 1.3 3.0x- 2.4-------
2019-03-14 4.5 9.6 0.0 -3.1 65.6 5.4- 2.5--1007.5 971.6 0.0 0.0 0.0x- 6.7-------
2019-03-13 3.0 6.6 -3.9 -6.6 61.1 4.5- 1.9--1012.9 976.6 0.0 0.0 0.0x- 0.0-------
2019-03-12 1.8 5.2 0.5 -2.4 69.6 4.7- 3.0--1019.4 982.7 0.0 0.0 0.0x- 4.7-------
2019-03-11 4.6 9.1 0.9 -0.1 65.0 5.4- 5.9--1009.7 973.7 1.5 1.3 0.2x- 3.8-------
2019-03-10 7.3 10.1 4.1 2.4 59.6 6.1- 5.0--1006.9 971.4 3.9 0.2 3.7x- 5.2-------
2019-03-09 7.3 12.8 0.4 -2.7 60.1 5.8- 4.4--1014.5 978.6 1.6 0.0 1.6x- 7.6-------
2019-03-08 10.9 16.5 5.6 3.6 50.4 6.3- 3.8--1011.9 976.6 0.0 0.0 0.0x- 6.2-------
2019-03-07 11.1 14.2 7.2 3.8 47.6 6.3- 4.1--1006.9 971.8 0.0 0.0 0.0x- 6.1-------
2019-03-06 6.8 12.3 2.4 0.0 57.8 5.4- 2.4--1015.6 979.7 0.0 0.0 0.0x- 9.0-------
2019-03-05 7.2 13.1 3.8 1.5 57.0 5.6- 5.1--1005.2 969.7 1.1 0.0 1.1x- 8.1-------
2019-03-04 10.3 17.7 4.2 0.7 56.9 6.8- 2.6--1002.6 967.5 0.4 0.0 0.4x- 5.6-------
2019-03-03 5.1 10.5 -1.1 -3.8 66.3 5.8- 2.9--1014.1 978.0 0.0 0.0 0.0x- 1.7-------
2019-03-02 1.0 6.4 -2.3 -4.8 66.3 4.3- 1.3--1016.7 980.0 0.0 0.0 0.0x- 6.4-------
2019-03-01 5.5 11.0 3.4 1.6 67.1 6.1- 3.5--1009.3 973.5 0.0 0.0 0.0x- 3.3-------
2019-02-28 7.0 15.9 -2.9 -5.2 59.0 5.4----1009.6 973.9 0.0 0.0 0.0x- 9.9-------
2019-02-27 4.9 10.4 2.4 1.2 64.8 5.5- 2.6--1025.2 988.8 0.0 0.0 0.0x- 5.3-------
2019-02-26 6.6 10.3 0.5 -2.1 61.9 6.0- 3.4--1026.3 990.0 0.0 0.0 0.0x- 5.4-------
2019-02-25 3.7 11.1 -2.5 -4.8 59.3 4.6- 1.9--1033.9 996.9 0.0 0.0 0.0x- 7.9-------
2019-02-24 -1.3 2.2 -4.4 -5.9 60.1 3.3- 0.9--1039.51001.7 0.0 0.0 0.0x- 0.0-------
2019-02-23 -4.8 -1.3 -8.9-10.2 64.9 2.8- 1.4--1044.81006.3 0.0 0.0 0.0x- 8.6-------
2019-02-22 -0.8 5.6 -4.2 -4.6 73.4 4.6- 3.5--1030.1 992.6 1.3 1.3 0.0x- 4.3-------
2019-02-21 6.2 9.9 3.9 2.9 65.3 6.1- 2.4--1023.9 987.6 8.1 0.5 7.6x- 0.2-------
2019-02-20 5.1 8.5 0.0 -2.4 67.9 5.9- 3.5--1021.2 984.9 0.2 0.2 0.0x- 2.4-------
2019-02-19 4.1 14.6 -3.2 -5.9 72.6 5.6- 1.4--1019.1 982.7 0.2 0.0 0.2x- 9.6-------
2019-02-18 4.1 14.9 -3.5 -5.6 72.4 5.5- 1.1--1024.6 988.0 0.0 0.0 0.0x- 9.5-------
2019-02-17 4.6 16.3 -3.1 -5.3 69.4 5.4- 1.0--1027.4 990.8 0.0 0.0 0.0x- 9.5-------
2019-02-16 3.5 13.7 -3.6 -5.9 76.0 5.6- 1.0--1030.8 993.9 0.0 0.0 0.0x- 9.3-------
2019-02-15 4.0 6.6 1.4 -1.5 87.8 7.2- 1.1--1034.1 997.2 0.0 0.0 0.0x- 0.0-------
2019-02-14 6.2 8.7 3.7 3.2 67.9 6.4- 3.4--1033.6 996.9 0.6 0.0 0.6x- 2.6-------
2019-02-13 2.3 4.0 -0.7 -1.6 69.6 5.1- 4.0--1031.2 994.1 0.0 0.0 0.0x- 0.1-------
2019-02-12 1.0 4.2 -0.9 -0.9 73.6 4.8- 5.1--1020.6 983.7 0.4 0.4 0.0x- 0.7-------
2019-02-11 4.3 6.7 2.3 1.0 76.4 6.3- 3.6--1005.4 969.5 0.4 0.0 0.4x- 0.7-------
2019-02-10 3.6 9.1 -2.5 -4.8 69.5 5.4- 3.3--1012.4 976.2 2.3 0.0 2.3x- 8.2-------
2019-02-09 1.1 6.5 -4.4 -6.8 75.9 4.9- 1.5--1021.5 984.7 0.0 0.0 0.0x- 4.7-------
2019-02-08 -0.7 3.9 -4.6 -6.7 78.1 4.5- 1.0--1029.2 991.8 0.0 0.0 0.0x- 0.0-------
2019-02-07 0.2 8.8 -6.1 -7.6 67.0 3.9- 1.5--1029.1 991.8 0.0 0.0 0.0x- 9.1-------
2019-02-06 -1.0 3.7 -4.8 -7.5 81.3 4.5- 0.9--1030.2 992.8 0.0 0.0 0.0x- 2.4-------
2019-02-05 0.5 5.4 -1.1 -3.8 79.0 5.0- 1.0--1029.8 992.6 0.0 0.0 0.0x- 5.8-------
2019-02-04 1.3 6.8 0.5 0.3 80.5 5.4- 2.6--1026.5 989.5 0.0 0.0 0.0x- 0.0-------
2019-02-03 9.0 14.8 6.7 4.3 66.5 7.5- 2.6--1007.1 971.8 0.6 0.0 0.6x- 4.6-------
2019-02-02 8.5 10.3 4.9 4.2 68.1 7.5- 2.9--1002.6 967.3 0.0 0.0 0.0x- 0.2-------
2019-02-01 2.0 5.9 -6.3 -7.1 70.8 5.0- 3.0--1005.0 968.8 0.0 0.0 0.0x- 7.7-------
2019-01-31 -0.3 3.6 -1.9 -3.0 81.9 4.9- 1.0--1004.9 968.5 0.0 0.0 0.0x- 6.5-------
189.6 ms

 

Źródłem pochodzenia danych jest Instytut Meteorologii i Gospodarki Wodnej – Państwowy Instytut Badawczy. Dane Instytutu Meteorologii i Gospodarki Wodnej – Państwowego Instytutu Badawczego zostały przetworzone.

Dane źródłowe można odnaleźć na stronie https://dane.imgw.pl